createdAt,value
2019-02-18T00:00:38.699Z,74.58
2019-02-18T00:03:07.959Z,74.50
2019-02-18T00:05:36.247Z,74.61
2019-02-18T00:08:04.503Z,75.03
2019-02-18T00:10:32.796Z,75.42
2019-02-18T00:13:01.094Z,75.66
2019-02-18T00:15:29.449Z,76.08
2019-02-18T00:17:57.716Z,75.95
2019-02-18T00:20:26.007Z,76.36
2019-02-18T00:22:54.267Z,76.42
2019-02-18T00:25:22.542Z,76.34
2019-02-18T00:27:50.834Z,76.44
2019-02-18T00:30:19.163Z,76.92
2019-02-18T00:32:47.417Z,77.13
2019-02-18T00:35:15.684Z,77.36
2019-02-18T00:37:43.969Z,77.20
2019-02-18T00:40:12.225Z,77.39
2019-02-18T00:42:40.513Z,77.82
2019-02-18T00:45:13.349Z,77.72
2019-02-18T00:47:41.646Z,77.80
2019-02-18T00:50:10.538Z,77.90
2019-02-18T00:52:38.829Z,78.16
2019-02-18T00:55:08.655Z,77.46
2019-02-18T00:57:36.925Z,77.64
2019-02-18T01:00:08.955Z,77.54
2019-02-18T01:02:37.306Z,77.45
2019-02-18T01:05:06.500Z,78.00
2019-02-18T01:07:35.342Z,77.87
2019-02-18T01:10:04.339Z,77.58
2019-02-18T01:12:32.604Z,77.80
2019-02-18T01:15:00.873Z,77.83
2019-02-18T01:17:29.171Z,77.70
2019-02-18T01:19:57.435Z,77.75
2019-02-18T01:22:25.716Z,78.04
2019-02-18T01:24:53.985Z,78.37
2019-02-18T01:27:22.276Z,78.19
2019-02-18T01:29:50.569Z,78.65
2019-02-18T01:32:18.845Z,78.33
2019-02-18T01:34:47.163Z,78.29
2019-02-18T01:37:15.418Z,77.60
2019-02-18T01:39:43.677Z,77.45
2019-02-18T01:42:11.955Z,76.97
2019-02-18T01:44:40.256Z,77.37
2019-02-18T01:47:08.525Z,77.39
2019-02-18T01:49:36.795Z,77.11
2019-02-18T01:52:05.082Z,77.05
2019-02-18T01:54:33.345Z,77.20
2019-02-18T01:57:01.630Z,77.13
2019-02-18T01:59:29.904Z,77.79
2019-02-18T02:01:58.197Z,77.75
2019-02-18T02:04:26.496Z,77.98
2019-02-18T02:06:54.870Z,78.22
2019-02-18T02:09:23.130Z,78.43
2019-02-18T02:11:51.420Z,78.53
2019-02-18T02:14:19.682Z,78.36
2019-02-18T02:16:47.979Z,78.51
2019-02-18T02:19:16.278Z,78.54
2019-02-18T02:21:44.555Z,78.93
2019-02-18T02:24:12.839Z,78.69
2019-02-18T02:26:41.137Z,78.96
2019-02-18T02:29:09.402Z,78.87
2019-02-18T02:31:37.699Z,78.42
2019-02-18T02:34:06.010Z,78.38
2019-02-18T02:36:34.273Z,77.87
2019-02-18T02:39:02.583Z,77.51
2019-02-18T02:41:30.844Z,77.31
2019-02-18T02:43:59.105Z,77.22
2019-02-18T02:46:27.418Z,77.06
2019-02-18T02:48:55.680Z,76.82
2019-02-18T02:51:23.938Z,76.66
2019-02-18T02:53:52.222Z,76.75
2019-02-18T02:56:20.506Z,76.79
2019-02-18T02:58:48.790Z,77.56
2019-02-18T03:01:17.071Z,77.81
2019-02-18T03:03:45.338Z,78.23
2019-02-18T03:06:13.626Z,78.57
2019-02-18T03:08:41.902Z,78.79
2019-02-18T03:11:10.235Z,78.44
2019-02-18T03:13:38.500Z,78.55
2019-02-18T03:16:07.134Z,78.67
2019-02-18T03:18:35.441Z,78.75
2019-02-18T03:21:03.727Z,79.11
2019-02-18T03:23:32.026Z,79.29
2019-02-18T03:26:00.296Z,79.29
2019-02-18T03:31:30.226Z,79.38
2019-02-18T03:34:04.443Z,79.41
2019-02-18T03:36:32.715Z,79.18
2019-02-18T03:39:00.984Z,79.25
2019-02-18T03:41:29.392Z,78.97
2019-02-18T03:43:57.656Z,78.76
2019-02-18T03:46:25.916Z,78.86
2019-02-18T03:48:54.216Z,78.83
2019-02-18T03:51:22.468Z,78.75
2019-02-18T03:53:50.771Z,79.08
2019-02-18T03:56:19.052Z,79.39
2019-02-18T03:58:47.315Z,79.16
2019-02-18T04:01:15.623Z,79.72
2019-02-18T04:03:43.885Z,79.26
2019-02-18T04:06:12.189Z,79.78
2019-02-18T04:08:43.215Z,80.43
2019-02-18T04:11:10.538Z,80.79
2019-02-18T04:13:38.795Z,80.74
2019-02-18T04:16:07.107Z,80.74
2019-02-18T04:18:35.404Z,80.45
2019-02-18T04:21:03.738Z,79.90
2019-02-18T04:23:32.013Z,79.66
2019-02-18T04:26:00.285Z,80.10
2019-02-18T04:28:28.584Z,79.70
2019-02-18T04:30:56.893Z,80.32
2019-02-18T04:33:25.131Z,80.32
2019-02-18T04:35:53.437Z,80.30
2019-02-18T04:40:59.022Z,79.95
2019-02-18T04:43:27.322Z,79.56
2019-02-18T04:45:55.582Z,79.04
2019-02-18T04:48:23.952Z,78.92
2019-02-18T04:50:52.180Z,78.59
2019-02-18T04:53:20.441Z,78.43
2019-02-18T04:55:48.726Z,78.23
2019-02-18T04:58:16.999Z,78.62
2019-02-18T05:00:45.277Z,78.92
2019-02-18T05:03:13.563Z,79.14
2019-02-18T05:05:41.825Z,79.36
2019-02-18T05:08:10.093Z,79.58
2019-02-18T05:10:38.374Z,79.77
2019-02-18T05:13:06.678Z,79.66
2019-02-18T05:15:34.963Z,79.62
2019-02-18T05:18:03.247Z,79.50
2019-02-18T05:20:31.532Z,79.25
2019-02-18T05:22:59.794Z,79.65
2019-02-18T05:25:28.069Z,79.70
2019-02-18T05:27:56.335Z,79.68
2019-02-18T05:30:24.642Z,79.41
2019-02-18T05:32:52.903Z,79.54
2019-02-18T05:35:21.201Z,79.52
2019-02-18T05:37:49.459Z,79.69
2019-02-18T05:40:17.781Z,79.56
2019-02-18T05:42:46.111Z,79.49
2019-02-18T05:45:14.380Z,79.49
2019-02-18T05:47:42.671Z,79.46
2019-02-18T05:50:10.959Z,80.03
2019-02-18T05:52:39.219Z,79.99
2019-02-18T05:55:07.780Z,79.59
2019-02-18T05:57:36.046Z,79.45
2019-02-18T06:00:10.078Z,79.49
2019-02-18T06:02:38.371Z,79.42
2019-02-18T06:05:07.511Z,79.93
2019-02-18T06:07:35.811Z,79.64
2019-02-18T06:10:06.527Z,79.98
2019-02-18T06:12:34.983Z,79.95
2019-02-18T06:15:03.314Z,79.87
2019-02-18T06:17:31.686Z,79.96
2019-02-18T06:19:59.951Z,80.83
2019-02-18T06:22:28.250Z,80.76
2019-02-18T06:24:56.542Z,81.40
2019-02-18T06:27:24.809Z,81.13
2019-02-18T06:29:53.086Z,81.07
2019-02-18T06:32:21.375Z,81.30
2019-02-18T06:34:49.637Z,80.92
2019-02-18T06:37:17.918Z,80.38
2019-02-18T06:39:46.252Z,80.21
2019-02-18T06:42:14.515Z,80.86
2019-02-18T06:44:44.417Z,80.31
2019-02-18T06:47:12.779Z,80.17
2019-02-18T06:49:41.051Z,80.20
2019-02-18T06:52:09.353Z,79.74
2019-02-18T06:54:37.609Z,79.50
2019-02-18T06:57:13.291Z,79.38
2019-02-18T06:59:43.232Z,79.70
2019-02-18T07:02:13.134Z,80.42
2019-02-18T07:04:43.030Z,80.26
2019-02-18T07:07:15.700Z,79.73
2019-02-18T07:09:51.924Z,79.71
2019-02-18T07:12:27.842Z,79.65
2019-02-18T07:14:56.101Z,79.65
2019-02-18T07:17:24.381Z,79.17
2019-02-18T07:19:52.686Z,79.21
2019-02-18T07:22:20.948Z,78.97
2019-02-18T07:24:49.213Z,78.58
2019-02-18T07:27:17.535Z,78.49
2019-02-18T07:29:45.789Z,78.17
2019-02-18T07:32:14.053Z,77.79
2019-02-18T07:34:42.339Z,77.58
2019-02-18T07:37:10.591Z,78.06
2019-02-18T07:39:38.883Z,78.13
2019-02-18T07:42:07.155Z,77.75
2019-02-18T07:44:35.414Z,77.48
2019-02-18T07:47:03.703Z,77.28
2019-02-18T07:49:31.974Z,76.45
2019-02-18T07:52:00.241Z,76.29
2019-02-18T07:54:28.517Z,76.11
2019-02-18T07:56:56.802Z,75.49
2019-02-18T07:59:25.137Z,75.45
2019-02-18T08:01:53.393Z,75.77
2019-02-18T08:04:21.644Z,76.32
2019-02-18T08:06:49.975Z,76.10
2019-02-18T08:09:18.241Z,76.28
2019-02-18T08:11:46.506Z,76.15
2019-02-18T08:14:14.809Z,75.91
2019-02-18T08:16:43.068Z,76.14
2019-02-18T08:19:11.352Z,75.55
2019-02-18T08:21:39.650Z,75.94
2019-02-18T08:24:07.909Z,75.12
2019-02-18T08:26:36.165Z,74.79
2019-02-18T08:29:04.457Z,74.67
2019-02-18T08:31:32.718Z,74.94
2019-02-18T08:34:01.013Z,75.04
2019-02-18T08:36:29.301Z,74.62
2019-02-18T08:38:57.572Z,74.73
2019-02-18T08:41:25.840Z,74.48
2019-02-18T08:43:54.166Z,74.46
2019-02-18T08:46:22.424Z,75.20
2019-02-18T08:48:50.676Z,74.35
2019-02-18T08:51:18.946Z,74.53
2019-02-18T08:53:47.986Z,73.95
2019-02-18T08:56:16.370Z,74.24
2019-02-18T08:58:44.663Z,73.81
2019-02-18T09:01:12.925Z,73.56
2019-02-18T09:03:41.200Z,73.49
2019-02-18T09:06:09.481Z,73.68
2019-02-18T09:08:37.774Z,73.59
2019-02-18T09:11:06.071Z,73.63
2019-02-18T09:13:34.335Z,73.65
2019-02-18T09:16:02.640Z,74.26
2019-02-18T09:18:30.899Z,73.95
2019-02-18T09:20:59.226Z,73.94
2019-02-18T09:23:32.101Z,73.48
2019-02-18T09:26:00.438Z,73.71
2019-02-18T09:28:28.740Z,73.34
2019-02-18T09:30:57.350Z,73.24
2019-02-18T09:33:25.630Z,73.39
2019-02-18T09:40:08.098Z,73.09
2019-02-18T09:42:36.374Z,72.66
2019-02-18T09:45:06.952Z,73.34
2019-02-18T09:47:35.207Z,73.50
2019-02-18T09:50:05.033Z,73.53
2019-02-18T09:52:33.287Z,72.82
2019-02-18T09:55:01.550Z,73.25
2019-02-18T09:57:29.848Z,73.83
2019-02-18T09:59:58.139Z,73.00
2019-02-18T10:02:26.388Z,72.52
2019-02-18T10:04:54.659Z,72.38
2019-02-18T10:07:22.951Z,72.13
2019-02-18T10:09:52.349Z,71.94
2019-02-18T10:12:20.647Z,71.53
2019-02-18T10:14:48.902Z,71.57
2019-02-18T10:17:17.197Z,71.47
2019-02-18T10:19:45.460Z,71.40
2019-02-18T10:22:13.790Z,71.39
2019-02-18T10:24:50.511Z,71.41
2019-02-18T10:27:12.078Z,70.93
2019-02-18T10:29:40.344Z,70.43
2019-02-18T10:32:08.647Z,70.08
2019-02-18T10:34:36.905Z,69.77
2019-02-18T10:37:05.201Z,69.65
2019-02-18T10:39:33.494Z,69.24
2019-02-18T10:42:01.745Z,68.61
2019-02-18T10:44:30.035Z,68.58
2019-02-18T10:46:58.322Z,68.75
2019-02-18T10:49:26.585Z,67.99
2019-02-18T10:51:54.874Z,68.00
2019-02-18T10:54:23.131Z,67.55
2019-02-18T10:56:51.418Z,66.98
2019-02-18T10:59:19.667Z,66.57
2019-02-18T11:01:47.957Z,66.49
2019-02-18T11:04:16.223Z,65.86
2019-02-18T11:06:44.895Z,65.06
2019-02-18T11:09:13.238Z,64.46
2019-02-18T11:11:41.534Z,63.25
2019-02-18T11:14:09.786Z,62.67
2019-02-18T11:16:38.360Z,61.57
2019-02-18T11:19:06.630Z,60.36
2019-02-18T11:21:34.923Z,60.25
2019-02-18T11:24:03.189Z,59.89
2019-02-18T11:26:31.481Z,58.45
2019-02-18T11:28:59.748Z,55.73
2019-02-18T11:31:28.321Z,53.12
2019-02-18T11:33:56.618Z,50.48
2019-02-18T11:36:24.890Z,46.15
2019-02-18T11:38:53.154Z,45.34
2019-02-18T11:41:27.472Z,42.50
2019-02-18T11:43:51.446Z,40.18
2019-02-18T11:46:20.037Z,38.46
2019-02-18T11:48:48.306Z,36.44
2019-02-18T11:51:16.580Z,35.06
2019-02-18T11:53:44.873Z,34.12
2019-02-18T11:56:13.206Z,33.14
2019-02-18T11:58:41.499Z,31.17
2019-02-18T12:01:09.844Z,30.98
2019-02-18T12:03:38.140Z,29.66
2019-02-18T12:06:06.443Z,28.65
2019-02-18T12:08:34.721Z,27.64
2019-02-18T12:11:02.992Z,27.01
2019-02-18T12:13:31.288Z,26.32
2019-02-18T12:15:59.564Z,25.57
2019-02-18T12:18:28.240Z,24.61
2019-02-18T12:20:56.547Z,24.05
2019-02-18T12:23:24.812Z,23.98
2019-02-18T12:25:53.125Z,23.27
2019-02-18T12:28:21.407Z,22.73
2019-02-18T12:30:49.746Z,22.30
2019-02-18T12:33:18.034Z,21.53
2019-02-18T12:35:46.458Z,21.54
2019-02-18T12:38:17.170Z,21.38
2019-02-18T12:40:44.747Z,21.01
2019-02-18T12:43:13.013Z,21.51
2019-02-18T12:45:41.304Z,21.50
2019-02-18T12:48:09.583Z,21.39
2019-02-18T12:50:38.149Z,21.16
2019-02-18T12:53:06.550Z,21.14
2019-02-18T12:55:35.036Z,21.48
2019-02-18T12:58:03.586Z,21.68
2019-02-18T13:00:32.017Z,22.45
2019-02-18T13:03:00.443Z,22.37
2019-02-18T13:05:28.722Z,22.88
2019-02-18T13:07:56.995Z,22.54
2019-02-18T13:10:34.675Z,22.54
2019-02-18T13:12:55.480Z,23.15
2019-02-18T13:15:23.737Z,23.16
2019-02-18T13:17:52.032Z,23.60
2019-02-18T13:20:20.325Z,23.87
2019-02-18T13:22:48.591Z,24.26
2019-02-18T13:25:16.889Z,24.43
2019-02-18T13:27:45.435Z,24.46
2019-02-18T13:30:16.115Z,24.46
2019-02-18T13:32:44.370Z,24.13
2019-02-18T13:35:12.633Z,24.17
2019-02-18T13:37:40.959Z,24.09
2019-02-18T13:40:09.217Z,24.51
2019-02-18T13:42:37.587Z,24.63
2019-02-18T13:45:07.894Z,25.26
2019-02-18T13:47:36.196Z,25.76
2019-02-18T13:50:09.894Z,26.22
2019-02-18T13:52:38.196Z,26.62
2019-02-18T13:55:08.709Z,26.74
2019-02-18T13:57:37.000Z,26.82
2019-02-18T14:00:08.518Z,26.82
2019-02-18T14:02:36.824Z,27.54
2019-02-18T14:05:06.722Z,27.92
2019-02-18T14:07:36.287Z,28.13
2019-02-18T14:10:06.024Z,28.24
2019-02-18T14:12:34.660Z,28.21
2019-02-18T14:15:02.957Z,28.29
2019-02-18T14:17:31.256Z,28.50
2019-02-18T14:19:59.553Z,28.99
2019-02-18T14:22:27.853Z,29.70
2019-02-18T14:24:56.120Z,30.10
2019-02-18T14:27:24.418Z,30.36
2019-02-18T14:29:52.853Z,30.50
2019-02-18T14:32:21.134Z,30.90
2019-02-18T14:34:49.406Z,31.37
2019-02-18T14:37:17.685Z,32.10
2019-02-18T14:39:46.017Z,32.74
2019-02-18T14:42:14.319Z,33.10
2019-02-18T14:44:43.089Z,33.40
2019-02-18T14:47:11.464Z,34.03
2019-02-18T14:49:39.798Z,34.44
2019-02-18T14:52:08.061Z,35.18
2019-02-18T14:54:36.325Z,36.43
2019-02-18T14:57:04.629Z,38.04
2019-02-18T14:59:32.911Z,39.39
2019-02-18T15:02:01.500Z,41.05
2019-02-18T15:04:29.774Z,42.19
2019-02-18T15:06:58.042Z,43.57
2019-02-18T15:09:26.352Z,46.12
2019-02-18T15:11:54.662Z,46.89
2019-02-18T15:14:22.931Z,47.09
2019-02-18T15:16:51.573Z,49.44
2019-02-18T15:19:19.869Z,50.71
2019-02-18T15:21:48.161Z,51.42
2019-02-18T15:24:16.418Z,52.30
2019-02-18T15:26:44.785Z,52.78
2019-02-18T15:29:13.047Z,55.98
2019-02-18T15:31:41.349Z,56.75
2019-02-18T15:34:09.779Z,55.99
2019-02-18T15:36:38.044Z,57.07
2019-02-18T15:39:06.333Z,57.93
2019-02-18T15:41:34.578Z,58.52
2019-02-18T15:44:02.871Z,58.10
2019-02-18T15:46:31.136Z,59.11
2019-02-18T15:48:59.796Z,59.77
2019-02-18T15:51:28.060Z,59.68
2019-02-18T15:53:56.338Z,62.05
2019-02-18T15:56:24.593Z,62.75
2019-02-18T15:58:52.888Z,63.40
2019-02-18T16:01:21.209Z,63.14
2019-02-18T16:03:49.504Z,62.59
2019-02-18T16:06:17.981Z,64.02
2019-02-18T16:08:46.238Z,64.83
2019-02-18T16:11:14.534Z,63.48
2019-02-18T16:13:42.809Z,63.88
2019-02-18T16:16:11.069Z,64.46
2019-02-18T16:18:39.366Z,63.95
2019-02-18T16:21:07.652Z,63.65
2019-02-18T16:23:35.946Z,63.97
2019-02-18T16:26:04.212Z,65.19
2019-02-18T16:28:32.501Z,65.42
2019-02-18T16:31:00.863Z,64.42
2019-02-18T16:33:29.135Z,65.59
2019-02-18T16:35:57.465Z,64.12
2019-02-18T16:38:25.739Z,63.51
2019-02-18T16:40:54.036Z,63.27
2019-02-18T16:43:22.648Z,64.50
2019-02-18T16:45:50.943Z,64.68
2019-02-18T16:48:19.482Z,64.83
2019-02-18T16:50:47.784Z,65.48
2019-02-18T16:53:16.458Z,64.96
2019-02-18T16:55:44.738Z,65.32
2019-02-18T16:58:12.998Z,65.73
2019-02-18T17:00:41.473Z,65.46
2019-02-18T17:03:09.721Z,64.75
2019-02-18T17:05:38.013Z,65.31
2019-02-18T17:08:06.270Z,65.38
2019-02-18T17:10:34.559Z,65.85
2019-02-18T17:13:08.125Z,65.81
2019-02-18T17:15:32.853Z,67.42
2019-02-18T17:18:01.174Z,66.21
2019-02-18T17:20:29.436Z,66.31
2019-02-18T17:22:57.695Z,66.31
2019-02-18T17:25:27.045Z,66.54
2019-02-18T17:27:55.349Z,67.87
2019-02-18T17:30:23.608Z,67.60
2019-02-18T17:32:51.907Z,67.58
2019-02-18T17:35:20.327Z,67.51
2019-02-18T17:37:48.587Z,69.02
2019-02-18T17:40:16.853Z,68.18
2019-02-18T17:42:45.470Z,68.46
2019-02-18T17:45:17.805Z,68.60
2019-02-18T17:47:46.066Z,68.42
2019-02-18T17:50:16.398Z,69.33
2019-02-18T17:52:44.854Z,68.10
2019-02-18T17:55:15.080Z,68.73
2019-02-18T17:57:43.524Z,68.28
2019-02-18T18:00:17.775Z,68.28
2019-02-18T18:02:46.050Z,68.12
2019-02-18T18:05:14.396Z,68.20
2019-02-18T18:07:42.711Z,68.51
2019-02-18T18:10:12.410Z,68.90
2019-02-18T18:12:40.710Z,70.22
2019-02-18T18:15:13.950Z,68.99
2019-02-18T18:17:42.198Z,68.93
2019-02-18T18:20:14.196Z,69.75
2019-02-18T18:22:42.458Z,69.34
2019-02-18T18:25:12.409Z,68.95
2019-02-18T18:27:40.686Z,69.46
2019-02-18T18:30:15.166Z,69.40
2019-02-18T18:32:45.242Z,69.21
2019-02-18T18:35:14.018Z,68.80
2019-02-18T18:37:42.581Z,69.29
2019-02-18T18:40:14.576Z,69.17
2019-02-18T18:42:42.833Z,69.30
2019-02-18T18:45:15.533Z,69.10
2019-02-18T18:47:44.024Z,69.30
2019-02-18T18:50:14.747Z,68.91
2019-02-18T18:52:43.719Z,69.65
2019-02-18T18:55:12.138Z,69.78
2019-02-18T18:57:40.911Z,69.48
2019-02-18T19:00:15.513Z,68.71
2019-02-18T19:02:43.994Z,70.23
2019-02-18T19:05:12.642Z,69.81
2019-02-18T19:07:41.265Z,69.45
2019-02-18T19:10:10.102Z,69.93
2019-02-18T19:12:38.516Z,70.07
2019-02-18T19:15:12.514Z,69.85
2019-02-18T19:17:40.762Z,69.80
2019-02-18T19:20:11.604Z,69.69
2019-02-18T19:22:40.057Z,69.49
2019-02-18T19:25:09.954Z,70.88
2019-02-18T19:27:38.241Z,70.66
2019-02-18T19:30:09.896Z,69.83
2019-02-18T19:32:38.178Z,69.59
2019-02-18T19:35:08.145Z,69.54
2019-02-18T19:37:36.420Z,69.50
2019-02-18T19:40:41.146Z,69.65
2019-02-18T19:43:09.412Z,70.72
2019-02-18T19:45:37.709Z,70.05
2019-02-18T19:48:05.976Z,70.82
2019-02-18T19:50:34.232Z,70.22
2019-02-18T19:53:02.557Z,71.11
2019-02-18T19:55:30.805Z,71.03
2019-02-18T19:57:59.333Z,71.96
2019-02-18T20:00:27.634Z,70.11
2019-02-18T20:02:55.897Z,70.79
2019-02-18T20:05:24.203Z,71.27
2019-02-18T20:07:52.480Z,70.58
2019-02-18T20:10:20.737Z,71.24
2019-02-18T20:12:49.034Z,71.61
2019-02-18T20:15:17.346Z,71.84
2019-02-18T20:17:45.618Z,70.55
2019-02-18T20:20:16.292Z,70.75
2019-02-18T20:22:44.582Z,70.99
2019-02-18T20:25:12.907Z,71.06
2019-02-18T20:27:41.197Z,71.15
2019-02-18T20:30:12.558Z,70.53
2019-02-18T20:32:40.840Z,70.84
2019-02-18T20:35:10.382Z,70.84
2019-02-18T20:37:39.012Z,71.25
2019-02-18T20:40:08.728Z,71.19
2019-02-18T20:42:37.014Z,70.97
2019-02-18T20:45:08.596Z,71.40
2019-02-18T20:47:37.229Z,71.50
2019-02-18T20:50:08.139Z,71.46
2019-02-18T20:52:36.861Z,71.41
2019-02-18T20:55:07.554Z,71.15
2019-02-18T20:57:36.499Z,71.35
2019-02-18T21:00:08.260Z,71.73
2019-02-18T21:02:36.813Z,73.21
2019-02-18T21:05:05.832Z,73.30
2019-02-18T21:07:34.310Z,72.75
2019-02-18T21:10:02.627Z,73.11
2019-02-18T21:12:31.701Z,73.23
2019-02-18T21:15:00.292Z,72.82
2019-02-18T21:17:28.578Z,74.17
2019-02-18T21:19:56.891Z,73.89
2019-02-18T21:22:25.162Z,73.75
2019-02-18T21:24:53.460Z,73.77
2019-02-18T21:27:22.115Z,74.46
2019-02-18T21:29:50.382Z,74.49
2019-02-18T21:32:18.683Z,75.31
2019-02-18T21:34:46.954Z,74.99
2019-02-18T21:37:15.259Z,75.67
2019-02-18T21:39:43.535Z,74.33
2019-02-18T21:42:11.884Z,73.93
2019-02-18T21:44:40.235Z,73.66
2019-02-18T21:47:08.561Z,73.60
2019-02-18T21:49:36.805Z,73.33
2019-02-18T21:52:05.107Z,73.28
2019-02-18T21:54:33.405Z,73.39
2019-02-18T21:57:01.668Z,73.36
2019-02-18T21:59:30.354Z,73.36
2019-02-18T22:01:58.623Z,73.38
2019-02-18T22:04:26.882Z,72.92
2019-02-18T22:06:55.153Z,72.86
2019-02-18T22:09:23.447Z,73.29
2019-02-18T22:11:51.749Z,74.19
2019-02-18T22:14:20.048Z,73.53
2019-02-18T22:16:48.587Z,73.11
2019-02-18T22:19:16.864Z,72.86
2019-02-18T22:21:45.138Z,72.87
2019-02-18T22:24:13.412Z,73.38
2019-02-18T22:26:41.707Z,73.53
2019-02-18T22:29:09.991Z,74.26
2019-02-18T22:31:38.257Z,76.00
2019-02-18T22:34:07.013Z,75.44
2019-02-18T22:36:35.266Z,75.46
2019-02-18T22:39:04.768Z,75.57
2019-02-18T22:41:33.062Z,77.07
2019-02-18T22:44:01.326Z,76.91
2019-02-18T22:46:29.639Z,77.23
2019-02-18T22:48:57.922Z,77.44
2019-02-18T22:51:26.511Z,77.55
2019-02-18T22:53:54.775Z,77.71
2019-02-18T22:56:23.102Z,77.75
2019-02-18T22:58:51.393Z,77.81
2019-02-18T23:01:20.965Z,77.30
2019-02-18T23:03:49.331Z,77.18
2019-02-18T23:06:17.642Z,77.67
2019-02-18T23:08:45.900Z,78.18
2019-02-18T23:11:14.201Z,77.85
2019-02-18T23:13:42.474Z,77.10
2019-02-18T23:16:10.757Z,76.76
2019-02-18T23:18:39.066Z,76.54
2019-02-18T23:21:07.331Z,76.92
2019-02-18T23:23:35.624Z,76.79
2019-02-18T23:26:03.912Z,76.67
2019-02-18T23:28:32.169Z,76.77
2019-02-18T23:31:00.469Z,77.12
2019-02-18T23:33:28.766Z,77.29
2019-02-18T23:35:57.018Z,76.89
2019-02-18T23:38:25.309Z,76.99
2019-02-18T23:40:55.347Z,76.93
2019-02-18T23:43:23.747Z,77.13
2019-02-18T23:45:52.035Z,76.32
2019-02-18T23:48:20.288Z,76.31
2019-02-18T23:50:48.593Z,76.22
2019-02-18T23:53:16.840Z,76.78
2019-02-18T23:55:45.114Z,77.49
2019-02-18T23:58:13.390Z,77.47
